createdAt,value
2022-12-05T00:00:02.395Z,0.00
2022-12-05T00:01:02.313Z,0.00
2022-12-05T00:02:02.339Z,0.00
2022-12-05T00:03:02.222Z,0.00
2022-12-05T00:04:02.241Z,0.00
2022-12-05T00:05:02.131Z,0.00
2022-12-05T00:06:02.091Z,0.00
2022-12-05T00:07:02.060Z,0.00
2022-12-05T00:08:02.100Z,0.00
2022-12-05T00:09:01.962Z,0.00
2022-12-05T00:10:01.923Z,0.00
2022-12-05T00:11:01.871Z,0.00
2022-12-05T00:12:01.819Z,0.00
2022-12-05T00:13:01.781Z,0.00
2022-12-05T00:14:01.725Z,0.00
2022-12-05T00:15:01.680Z,0.00
2022-12-05T00:16:01.635Z,0.00
2022-12-05T00:17:01.632Z,0.00
2022-12-05T00:18:01.546Z,0.00
2022-12-05T00:19:01.509Z,0.00
2022-12-05T00:20:01.962Z,0.00
2022-12-05T00:21:01.410Z,0.00
2022-12-05T00:22:01.363Z,0.00
2022-12-05T00:23:01.319Z,0.00
2022-12-05T00:24:01.278Z,0.00
2022-12-05T00:25:01.240Z,0.00
2022-12-05T00:26:01.188Z,0.00
2022-12-05T00:27:01.134Z,0.00
2022-12-05T00:28:01.093Z,0.00
2022-12-05T00:29:01.045Z,0.00
2022-12-05T00:30:01.033Z,0.00
2022-12-05T00:31:00.965Z,0.00
2022-12-05T00:32:00.995Z,0.00
2022-12-05T00:33:00.866Z,0.00
2022-12-05T00:34:00.819Z,0.00
2022-12-05T00:35:00.776Z,0.00
2022-12-05T00:36:00.732Z,0.00
2022-12-05T00:37:00.693Z,0.00
2022-12-05T00:38:00.639Z,0.00
2022-12-05T00:39:00.596Z,0.00
2022-12-05T00:40:00.714Z,0.00
2022-12-05T00:41:00.499Z,0.00
2022-12-05T00:42:00.457Z,0.00
2022-12-05T00:43:00.421Z,0.00
2022-12-05T00:44:00.371Z,0.00
2022-12-05T00:45:00.321Z,0.00
2022-12-05T00:46:00.312Z,0.00
2022-12-05T00:47:00.230Z,0.00
2022-12-05T00:48:00.202Z,0.00
2022-12-05T00:49:00.137Z,0.00
2022-12-05T00:50:00.295Z,0.00
2022-12-05T00:51:00.047Z,0.00
2022-12-05T00:52:00.007Z,0.00
2022-12-05T00:52:59.956Z,0.00
2022-12-05T00:53:59.929Z,0.00
2022-12-05T00:54:59.867Z,0.00
2022-12-05T00:55:59.825Z,0.00
2022-12-05T00:56:59.776Z,0.00
2022-12-05T00:57:59.735Z,0.00
2022-12-05T00:58:59.694Z,0.00
2022-12-05T00:59:59.898Z,0.00
2022-12-05T01:00:59.617Z,0.00
2022-12-05T01:01:59.551Z,0.00
2022-12-05T01:02:59.569Z,0.00
2022-12-05T01:03:59.459Z,0.00
2022-12-05T01:04:59.424Z,0.00
2022-12-05T01:05:59.371Z,0.00
2022-12-05T01:06:59.327Z,0.00
2022-12-05T01:07:59.363Z,0.00
2022-12-05T01:08:59.239Z,0.00
2022-12-05T01:09:59.560Z,0.00
2022-12-05T01:10:59.150Z,0.00
2022-12-05T01:11:59.095Z,0.00
2022-12-05T01:12:59.047Z,0.00
2022-12-05T01:13:59.009Z,0.00
2022-12-05T01:14:58.957Z,0.00
2022-12-05T01:15:58.918Z,0.00
2022-12-05T01:16:58.928Z,0.00
2022-12-05T01:17:58.826Z,0.00
2022-12-05T01:18:58.779Z,0.00
2022-12-05T01:19:59.093Z,0.00
2022-12-05T01:20:58.683Z,0.00
2022-12-05T01:21:58.644Z,0.00
2022-12-05T01:22:58.606Z,0.00
2022-12-05T01:23:58.561Z,0.00
2022-12-05T01:24:58.504Z,0.00
2022-12-05T01:25:58.458Z,0.00
2022-12-05T01:26:58.410Z,0.00
2022-12-05T01:27:58.371Z,0.00
2022-12-05T01:28:58.402Z,0.00
2022-12-05T01:29:58.538Z,0.00
2022-12-05T01:30:58.231Z,0.00
2022-12-05T01:31:58.230Z,0.00
2022-12-05T01:32:58.141Z,0.00
2022-12-05T01:33:58.096Z,0.00
2022-12-05T01:34:58.058Z,0.00
2022-12-05T01:35:58.015Z,0.00
2022-12-05T01:36:57.955Z,0.00
2022-12-05T01:37:57.914Z,0.00
2022-12-05T01:38:57.864Z,0.00
2022-12-05T01:39:58.118Z,0.00
2022-12-05T01:40:57.785Z,0.00
2022-12-05T01:41:57.733Z,0.00
2022-12-05T01:42:57.696Z,0.00
2022-12-05T01:43:57.662Z,0.00
2022-12-05T01:44:57.591Z,0.00
2022-12-05T01:45:57.577Z,0.00
2022-12-05T01:46:57.500Z,0.00
2022-12-05T01:47:57.461Z,0.00
2022-12-05T01:48:57.427Z,0.00
2022-12-05T01:49:57.728Z,0.00
2022-12-05T01:50:57.320Z,0.00
2022-12-05T01:51:57.276Z,0.00
2022-12-05T01:52:57.227Z,0.00
2022-12-05T01:53:57.185Z,0.00
2022-12-05T01:54:57.147Z,0.00
2022-12-05T01:55:57.094Z,0.00
2022-12-05T01:56:57.048Z,0.00
2022-12-05T01:57:57.004Z,0.00
2022-12-05T01:58:56.954Z,0.00
2022-12-05T01:59:57.139Z,0.00
2022-12-05T02:00:56.935Z,0.00
2022-12-05T02:01:56.854Z,0.00
2022-12-05T02:02:56.808Z,0.00
2022-12-05T02:03:56.731Z,0.00
2022-12-05T02:04:56.682Z,0.00
2022-12-05T02:05:56.641Z,0.00
2022-12-05T02:06:56.601Z,0.00
2022-12-05T02:07:56.572Z,0.00
2022-12-05T02:08:56.499Z,0.00
2022-12-05T02:09:56.967Z,0.00
2022-12-05T02:10:56.438Z,0.00
2022-12-05T02:11:56.368Z,0.00
2022-12-05T02:12:56.318Z,0.00
2022-12-05T02:13:56.279Z,0.00
2022-12-05T02:14:56.232Z,0.00
2022-12-05T02:16:01.663Z,0.00
2022-12-05T02:16:56.213Z,0.00
2022-12-05T02:17:56.104Z,0.00
2022-12-05T02:18:56.046Z,0.00
2022-12-05T02:19:56.401Z,0.00
2022-12-05T02:20:55.954Z,0.00
2022-12-05T02:21:55.922Z,0.00
2022-12-05T02:22:55.875Z,0.00
2022-12-05T02:23:55.835Z,0.00
2022-12-05T02:24:55.775Z,0.00
2022-12-05T02:25:55.728Z,0.00
2022-12-05T02:26:55.680Z,0.00
2022-12-05T02:27:55.641Z,0.00
2022-12-05T02:28:55.603Z,0.00
2022-12-05T02:29:55.882Z,0.00
2022-12-05T02:30:55.557Z,0.00
2022-12-05T02:31:55.518Z,0.00
2022-12-05T02:32:55.408Z,0.00
2022-12-05T02:33:55.366Z,0.00
2022-12-05T02:34:55.329Z,0.00
2022-12-05T02:35:55.288Z,0.00
2022-12-05T02:36:55.231Z,0.00
2022-12-05T02:37:55.186Z,0.00
2022-12-05T02:38:55.138Z,0.00
2022-12-05T02:39:55.218Z,0.00
2022-12-05T02:40:55.055Z,0.00
2022-12-05T02:41:55.004Z,0.00
2022-12-05T02:42:54.953Z,0.00
2022-12-05T02:43:54.910Z,0.00
2022-12-05T02:44:54.867Z,0.00
2022-12-05T02:45:54.855Z,0.00
2022-12-05T02:46:54.774Z,0.00
2022-12-05T02:47:54.742Z,0.00
2022-12-05T02:48:54.681Z,0.00
2022-12-05T02:49:54.748Z,0.00
2022-12-05T02:50:54.591Z,0.00
2022-12-05T02:51:54.564Z,0.00
2022-12-05T02:52:54.499Z,0.00
2022-12-05T02:53:54.455Z,0.00
2022-12-05T02:54:54.408Z,0.00
2022-12-05T02:55:54.364Z,0.00
2022-12-05T02:56:54.319Z,0.00
2022-12-05T02:57:54.284Z,0.00
2022-12-05T02:58:54.231Z,0.00
2022-12-05T02:59:54.193Z,0.00
2022-12-05T03:00:54.224Z,0.00
2022-12-05T03:01:54.174Z,0.00
2022-12-05T03:02:54.046Z,0.00
2022-12-05T03:03:54.055Z,0.00
2022-12-05T03:04:53.955Z,0.00
2022-12-05T03:05:53.909Z,0.00
2022-12-05T03:06:53.890Z,0.00
2022-12-05T03:07:53.919Z,0.00
2022-12-05T03:08:53.770Z,0.00
2022-12-05T03:09:53.727Z,0.00
2022-12-05T03:10:53.683Z,0.00
2022-12-05T03:11:53.649Z,0.00
2022-12-05T03:12:53.590Z,0.00
2022-12-05T03:13:53.558Z,0.00
2022-12-05T03:14:53.527Z,0.00
2022-12-05T03:15:53.458Z,0.00
2022-12-05T03:16:53.463Z,0.00
2022-12-05T03:17:53.370Z,0.00
2022-12-05T03:18:53.317Z,0.00
2022-12-05T03:19:53.273Z,0.00
2022-12-05T03:20:53.225Z,0.00
2022-12-05T03:21:53.195Z,0.00
2022-12-05T03:22:53.135Z,0.00
2022-12-05T03:23:53.669Z,0.00
2022-12-05T03:24:53.045Z,0.00
2022-12-05T03:25:53.005Z,0.00
2022-12-05T03:26:52.953Z,0.00
2022-12-05T03:27:52.924Z,0.00
2022-12-05T03:28:52.869Z,0.00
2022-12-05T03:29:52.819Z,0.00
2022-12-05T03:30:52.824Z,0.00
2022-12-05T03:31:52.732Z,0.00
2022-12-05T03:32:52.694Z,0.00
2022-12-05T03:33:52.638Z,0.00
2022-12-05T03:34:52.591Z,0.00
2022-12-05T03:35:52.548Z,0.00
2022-12-05T03:36:52.500Z,0.00
2022-12-05T03:37:52.463Z,0.00
2022-12-05T03:38:52.408Z,0.00
2022-12-05T03:39:52.362Z,0.00
2022-12-05T03:40:52.321Z,0.00
2022-12-05T03:41:52.272Z,0.00
2022-12-05T03:42:52.242Z,0.00
2022-12-05T03:43:52.186Z,0.00
2022-12-05T03:44:52.138Z,0.00
2022-12-05T03:45:52.177Z,0.00
2022-12-05T03:46:52.046Z,0.00
2022-12-05T03:47:51.999Z,0.00
2022-12-05T03:48:51.961Z,0.00
2022-12-05T03:49:51.908Z,0.00
2022-12-05T03:50:51.865Z,0.00
2022-12-05T03:51:51.817Z,0.00
2022-12-05T03:53:18.720Z,0.00
2022-12-05T03:53:51.727Z,0.00
2022-12-05T03:54:51.695Z,0.00
2022-12-05T03:55:51.636Z,0.00
2022-12-05T03:56:51.593Z,0.00
2022-12-05T03:57:51.542Z,0.00
2022-12-05T03:58:51.504Z,0.00
2022-12-05T03:59:51.462Z,0.00
2022-12-05T04:00:51.412Z,0.00
2022-12-05T04:01:51.481Z,0.00
2022-12-05T04:02:51.322Z,0.00
2022-12-05T04:03:51.312Z,0.00
2022-12-05T04:04:51.242Z,0.00
2022-12-05T04:05:51.179Z,0.00
2022-12-05T04:06:51.141Z,0.00
2022-12-05T04:07:51.140Z,0.00
2022-12-05T04:08:51.046Z,0.00
2022-12-05T04:09:51.002Z,0.00
2022-12-05T04:10:50.965Z,0.00
2022-12-05T04:11:50.916Z,0.00
2022-12-05T04:12:50.863Z,0.00
2022-12-05T04:13:50.817Z,0.00
2022-12-05T04:14:50.774Z,0.00
2022-12-05T04:15:50.783Z,0.00
2022-12-05T04:16:50.683Z,0.00
2022-12-05T04:17:53.781Z,0.00
2022-12-05T04:18:50.592Z,0.00
2022-12-05T04:19:50.545Z,0.00
2022-12-05T04:20:50.513Z,0.00
2022-12-05T04:21:50.452Z,0.00
2022-12-05T04:22:50.414Z,0.00
2022-12-05T04:23:50.372Z,0.00
2022-12-05T04:24:50.337Z,0.00
2022-12-05T04:25:50.273Z,0.00
2022-12-05T04:26:50.239Z,0.00
2022-12-05T04:27:50.191Z,0.00
2022-12-05T04:28:50.141Z,0.00
2022-12-05T04:29:50.093Z,0.00
2022-12-05T04:30:50.107Z,0.00
2022-12-05T04:31:50.019Z,0.00
2022-12-05T04:32:49.955Z,0.00
2022-12-05T04:33:49.910Z,0.00
2022-12-05T04:34:49.867Z,0.00
2022-12-05T04:35:49.834Z,0.00
2022-12-05T04:36:49.775Z,0.00
2022-12-05T04:37:49.748Z,0.00
2022-12-05T04:38:49.683Z,0.00
2022-12-05T04:39:49.648Z,0.00
2022-12-05T04:40:49.608Z,0.00
2022-12-05T04:41:49.541Z,0.00
2022-12-05T04:42:49.512Z,0.00
2022-12-05T04:43:49.468Z,0.00
2022-12-05T04:44:49.421Z,0.00
2022-12-05T04:45:49.365Z,0.00
2022-12-05T04:46:49.439Z,0.00
2022-12-05T04:47:49.270Z,0.00
2022-12-05T04:48:49.233Z,0.00
2022-12-05T04:49:53.490Z,0.00
2022-12-05T04:50:49.139Z,0.00
2022-12-05T04:51:49.091Z,0.00
2022-12-05T04:52:49.043Z,0.00
2022-12-05T04:53:49.607Z,0.00
2022-12-05T04:54:48.962Z,0.00
2022-12-05T04:55:48.918Z,0.00
2022-12-05T04:56:48.866Z,0.00
2022-12-05T04:57:48.815Z,0.00
2022-12-05T04:58:48.776Z,0.00
2022-12-05T04:59:48.724Z,0.00
2022-12-05T05:00:48.680Z,0.00
2022-12-05T05:01:48.765Z,0.00
2022-12-05T05:02:48.671Z,0.00
2022-12-05T05:03:48.543Z,0.00
2022-12-05T05:04:48.499Z,0.00
2022-12-05T05:05:48.450Z,0.00
2022-12-05T05:06:48.423Z,0.00
2022-12-05T05:07:48.412Z,0.00
2022-12-05T05:08:48.323Z,0.00
2022-12-05T05:09:48.268Z,0.00
2022-12-05T05:10:48.225Z,0.00
2022-12-05T05:11:48.177Z,0.00
2022-12-05T05:12:48.144Z,0.00
2022-12-05T05:13:48.089Z,0.00
2022-12-05T05:14:48.051Z,0.00
2022-12-05T05:15:48.037Z,0.00
2022-12-05T05:16:47.959Z,0.00
2022-12-05T05:17:47.918Z,0.00
2022-12-05T05:18:47.866Z,0.00
2022-12-05T05:19:47.822Z,0.00
2022-12-05T05:20:47.772Z,0.00
2022-12-05T05:21:47.736Z,0.00
2022-12-05T05:22:47.677Z,0.00
2022-12-05T05:23:47.641Z,0.00
2022-12-05T05:24:47.597Z,0.00
2022-12-05T05:25:47.543Z,0.00
2022-12-05T05:26:51.152Z,0.00
2022-12-05T05:27:47.449Z,0.00
2022-12-05T05:28:47.407Z,0.00
2022-12-05T05:29:47.358Z,0.00
2022-12-05T05:30:47.334Z,0.00
2022-12-05T05:31:47.329Z,0.00
2022-12-05T05:32:47.237Z,0.00
2022-12-05T05:33:47.174Z,0.00
2022-12-05T05:34:47.132Z,0.00
2022-12-05T05:35:47.085Z,0.00
2022-12-05T05:36:47.042Z,0.00
2022-12-05T05:37:46.993Z,0.00
2022-12-05T05:38:46.967Z,0.00
2022-12-05T05:39:46.903Z,0.00
2022-12-05T05:40:46.859Z,0.00
2022-12-05T05:41:46.823Z,0.00
2022-12-05T05:42:46.766Z,0.00
2022-12-05T05:43:46.720Z,0.00
2022-12-05T05:44:46.689Z,0.00
2022-12-05T05:45:46.630Z,0.00
2022-12-05T05:46:46.605Z,0.00
2022-12-05T05:47:46.561Z,0.00
2022-12-05T05:48:46.498Z,0.00
2022-12-05T05:49:46.449Z,0.00
2022-12-05T05:50:46.416Z,0.00
2022-12-05T05:51:46.358Z,0.00
2022-12-05T05:52:46.313Z,0.00
2022-12-05T05:53:46.272Z,0.00
2022-12-05T05:54:46.225Z,0.00
2022-12-05T05:55:46.179Z,0.00
2022-12-05T05:56:46.141Z,0.00
2022-12-05T05:57:46.083Z,0.00
2022-12-05T05:58:46.039Z,0.00
2022-12-05T05:59:45.992Z,0.00
2022-12-05T06:00:45.951Z,0.00
2022-12-05T06:01:45.901Z,0.00
2022-12-05T06:02:45.958Z,0.00
2022-12-05T06:03:45.926Z,0.00
2022-12-05T06:04:45.766Z,0.00
2022-12-05T06:05:51.589Z,0.00
2022-12-05T06:06:45.677Z,0.00
2022-12-05T06:07:45.681Z,0.00
2022-12-05T06:08:45.594Z,0.00
2022-12-05T06:09:45.539Z,0.00
2022-12-05T06:10:45.495Z,0.00
2022-12-05T06:11:45.450Z,0.00
2022-12-05T06:12:45.409Z,0.00
2022-12-05T06:13:45.369Z,0.00
2022-12-05T06:14:45.323Z,0.00
2022-12-05T06:15:45.265Z,0.00
2022-12-05T06:16:45.288Z,0.00
2022-12-05T06:17:45.175Z,0.00
2022-12-05T06:18:45.133Z,0.00
2022-12-05T06:19:45.087Z,0.00
2022-12-05T06:20:45.041Z,0.00
2022-12-05T06:21:45.013Z,0.00
2022-12-05T06:22:44.955Z,0.00
2022-12-05T06:23:44.904Z,0.00
2022-12-05T06:24:44.876Z,0.00
2022-12-05T06:25:44.811Z,0.00
2022-12-05T06:26:44.768Z,0.00
2022-12-05T06:27:44.731Z,0.00
2022-12-05T06:28:44.678Z,0.00
2022-12-05T06:29:44.632Z,0.00
2022-12-05T06:30:44.589Z,0.00
2022-12-05T06:31:44.601Z,0.00
2022-12-05T06:32:44.496Z,0.00
2022-12-05T06:33:44.477Z,0.00
2022-12-05T06:34:44.404Z,0.00
2022-12-05T06:35:44.359Z,0.00
2022-12-05T06:36:44.314Z,0.00
2022-12-05T06:37:44.271Z,0.00
2022-12-05T06:38:44.229Z,0.00
2022-12-05T06:39:44.192Z,0.00
2022-12-05T06:40:44.146Z,0.00
2022-12-05T06:41:44.089Z,0.00
2022-12-05T06:42:44.051Z,0.00
2022-12-05T06:43:44.005Z,0.00
2022-12-05T06:44:43.956Z,0.00
2022-12-05T06:45:43.977Z,0.00
2022-12-05T06:46:43.872Z,0.00
2022-12-05T06:47:43.815Z,0.00
2022-12-05T06:48:43.781Z,0.00
2022-12-05T06:49:43.721Z,0.00
2022-12-05T06:50:43.686Z,4.00
2022-12-05T06:51:43.646Z,4.00
2022-12-05T06:52:43.590Z,0.00
2022-12-05T06:53:43.539Z,4.00
2022-12-05T06:54:43.497Z,4.00
2022-12-05T06:55:43.449Z,4.00
2022-12-05T06:56:43.421Z,4.00
2022-12-05T06:57:43.359Z,4.00
2022-12-05T06:58:44.134Z,4.00
2022-12-05T06:59:43.264Z,8.00
2022-12-05T07:00:43.265Z,8.00
2022-12-05T07:01:43.237Z,8.00
2022-12-05T07:02:43.246Z,8.00
2022-12-05T07:03:43.083Z,12.00
2022-12-05T07:04:43.039Z,12.00
2022-12-05T07:05:42.998Z,16.00
2022-12-05T07:06:46.173Z,20.00
2022-12-05T07:07:42.973Z,24.00
2022-12-05T07:08:42.860Z,24.00
2022-12-05T07:09:42.810Z,24.00
2022-12-05T07:10:42.767Z,28.00
2022-12-05T07:11:42.724Z,32.00
2022-12-05T07:12:42.678Z,32.00
2022-12-05T07:13:42.639Z,36.00
2022-12-05T07:14:50.378Z,40.00
2022-12-05T07:15:42.536Z,44.00
2022-12-05T07:16:42.548Z,48.00
2022-12-05T07:17:42.447Z,56.00
2022-12-05T07:18:42.430Z,60.00
2022-12-05T07:19:42.356Z,64.00
2022-12-05T07:21:10.861Z,68.00
2022-12-05T07:21:42.265Z,72.00
2022-12-05T07:22:42.223Z,76.00
2022-12-05T07:23:42.179Z,80.00
2022-12-05T07:24:42.156Z,84.00
2022-12-05T07:25:42.080Z,84.00
2022-12-05T07:26:42.040Z,96.00
2022-12-05T07:27:41.991Z,100.00
2022-12-05T07:28:41.947Z,108.00
2022-12-05T07:29:41.898Z,116.00
2022-12-05T07:30:41.868Z,132.00
2022-12-05T07:31:41.837Z,140.00
2022-12-05T07:32:41.766Z,156.00
2022-12-05T07:33:41.715Z,172.00
2022-12-05T07:34:41.673Z,184.00
2022-12-05T07:35:41.623Z,200.00
2022-12-05T07:36:41.592Z,216.00
2022-12-05T07:37:41.532Z,236.00
2022-12-05T07:38:41.491Z,260.00
2022-12-05T07:39:41.443Z,288.00
2022-12-05T07:40:41.394Z,312.00
2022-12-05T07:41:41.349Z,336.00
2022-12-05T07:42:41.316Z,356.00
2022-12-05T07:43:41.279Z,372.00
2022-12-05T07:44:41.222Z,392.00
2022-12-05T07:45:41.234Z,416.00
2022-12-05T07:46:41.124Z,448.00
2022-12-05T07:47:41.174Z,480.00
2022-12-05T07:48:41.052Z,516.00
2022-12-05T07:49:40.986Z,552.00
2022-12-05T07:50:40.944Z,588.00
2022-12-05T07:51:40.895Z,624.00
2022-12-05T07:52:40.849Z,664.00
2022-12-05T07:53:40.813Z,708.00
2022-12-05T07:54:40.756Z,752.00
2022-12-05T07:55:40.712Z,796.00
2022-12-05T07:56:46.181Z,836.00
2022-12-05T07:57:40.620Z,876.00
2022-12-05T07:58:40.587Z,908.00
2022-12-05T07:59:40.540Z,948.00
2022-12-05T08:00:40.479Z,992.00
2022-12-05T08:01:40.489Z,1044.00
2022-12-05T08:02:40.986Z,1096.00
2022-12-05T08:03:40.348Z,1144.00
2022-12-05T08:04:40.296Z,1184.00
2022-12-05T08:05:40.256Z,1224.00
2022-12-05T08:06:40.220Z,1264.00
2022-12-05T08:07:40.194Z,1308.00
2022-12-05T08:08:40.114Z,1348.00
2022-12-05T08:09:40.070Z,1380.00
2022-12-05T08:10:40.020Z,1408.00
2022-12-05T08:11:39.980Z,1420.00
2022-12-05T08:12:39.941Z,1440.00
2022-12-05T08:13:39.888Z,1464.00
2022-12-05T08:14:39.849Z,1492.00
2022-12-05T08:15:39.796Z,1528.00
2022-12-05T08:16:39.802Z,1552.00
2022-12-05T08:17:39.706Z,1588.00
2022-12-05T08:18:39.700Z,1616.00
2022-12-05T08:19:39.614Z,1636.00
2022-12-05T08:20:48.750Z,1664.00
2022-12-05T08:21:39.522Z,1680.00
2022-12-05T08:22:39.474Z,1696.00
2022-12-05T08:23:39.435Z,1700.00
2022-12-05T08:24:39.406Z,1700.00
2022-12-05T08:25:39.340Z,1692.00
2022-12-05T08:26:39.288Z,1692.00
2022-12-05T08:27:39.245Z,1680.00
2022-12-05T08:28:39.197Z,1672.00
2022-12-05T08:29:39.157Z,1672.00
2022-12-05T08:30:39.159Z,1684.00
2022-12-05T08:31:39.065Z,1708.00
2022-12-05T08:32:39.014Z,1740.00
2022-12-05T08:33:38.979Z,1768.00
2022-12-05T08:34:38.923Z,1776.00
2022-12-05T08:35:38.890Z,1768.00
2022-12-05T08:36:38.838Z,1756.00
2022-12-05T08:37:38.788Z,1752.00
2022-12-05T08:38:38.748Z,1764.00
2022-12-05T08:39:39.111Z,1772.00
2022-12-05T08:40:38.647Z,1776.00
2022-12-05T08:41:38.613Z,1760.00
2022-12-05T08:42:38.560Z,1736.00
2022-12-05T08:43:38.517Z,1720.00
2022-12-05T08:44:38.466Z,1708.00
2022-12-05T08:45:38.429Z,1724.00
2022-12-05T08:46:38.434Z,1744.00
2022-12-05T08:47:38.344Z,1760.00
2022-12-05T08:48:38.292Z,1780.00
2022-12-05T08:49:38.241Z,1836.00
2022-12-05T08:50:38.193Z,1920.00
2022-12-05T08:51:38.151Z,2024.00
2022-12-05T08:52:38.122Z,2120.00
2022-12-05T08:53:43.876Z,2200.00
2022-12-05T08:54:38.017Z,2252.00
2022-12-05T08:55:37.988Z,2268.00
2022-12-05T08:56:37.918Z,2260.00
2022-12-05T08:57:37.875Z,2252.00
2022-12-05T08:58:37.830Z,2248.00
2022-12-05T08:59:37.790Z,2244.00
2022-12-05T09:00:37.737Z,2220.00
2022-12-05T09:01:37.760Z,2176.00
2022-12-05T09:02:37.704Z,2116.00
2022-12-05T09:03:37.605Z,2044.00
2022-12-05T09:04:37.570Z,1972.00
2022-12-05T09:05:37.514Z,1900.00
2022-12-05T09:06:37.474Z,1836.00
2022-12-05T09:07:37.522Z,1788.00
2022-12-05T09:08:37.380Z,1756.00
2022-12-05T09:09:37.332Z,1720.00
2022-12-05T09:10:37.285Z,1688.00
2022-12-05T09:11:37.240Z,1672.00
2022-12-05T09:12:37.209Z,1648.00
2022-12-05T09:13:37.154Z,1636.00
2022-12-05T09:14:37.114Z,1644.00
2022-12-05T09:15:37.103Z,1652.00
2022-12-05T09:16:38.837Z,1676.00
2022-12-05T09:17:36.978Z,1716.00
2022-12-05T09:18:36.917Z,1784.00
2022-12-05T09:19:36.890Z,1888.00
2022-12-05T09:20:36.832Z,2024.00
2022-12-05T09:21:36.783Z,2180.00
2022-12-05T09:22:36.737Z,2316.00
2022-12-05T09:23:36.691Z,2444.00
2022-12-05T09:24:36.642Z,2568.00
2022-12-05T09:25:36.619Z,2700.00
2022-12-05T09:26:36.555Z,2824.00
2022-12-05T09:27:36.542Z,2956.00
2022-12-05T09:28:36.465Z,3100.00
2022-12-05T09:29:36.425Z,3208.00
2022-12-05T09:30:36.382Z,3268.00
2022-12-05T09:31:36.456Z,3304.00
2022-12-05T09:32:36.283Z,3328.00
2022-12-05T09:33:36.252Z,3368.00
2022-12-05T09:34:36.194Z,3468.00
2022-12-05T09:35:36.170Z,3580.00
2022-12-05T09:36:36.099Z,3720.00
2022-12-05T09:37:40.191Z,3896.00
2022-12-05T09:38:36.011Z,4132.00
2022-12-05T09:39:35.999Z,4388.00
2022-12-05T09:40:35.918Z,4636.00
2022-12-05T09:41:35.882Z,4864.00
2022-12-05T09:42:35.830Z,5032.00
2022-12-05T09:43:35.794Z,5136.00
2022-12-05T09:44:35.737Z,5184.00
2022-12-05T09:45:35.707Z,5168.00
2022-12-05T09:46:36.062Z,5116.00
2022-12-05T09:47:35.613Z,5076.00
2022-12-05T09:48:35.558Z,5068.00
2022-12-05T09:49:35.516Z,5136.00
2022-12-05T09:50:35.472Z,5288.00
2022-12-05T09:51:35.455Z,5472.00
2022-12-05T09:52:35.381Z,5668.00
2022-12-05T09:53:35.341Z,5880.00
2022-12-05T09:54:35.289Z,6036.00
2022-12-05T09:55:35.250Z,6152.00
2022-12-05T09:56:35.199Z,6248.00
2022-12-05T09:57:35.165Z,6344.00
2022-12-05T09:58:35.110Z,6448.00
2022-12-05T09:59:35.068Z,6524.00
2022-12-05T10:00:35.022Z,6536.00
2022-12-05T10:01:35.033Z,6572.00
2022-12-05T10:02:34.933Z,6652.00
2022-12-05T10:03:34.900Z,6764.00
2022-12-05T10:04:34.918Z,6892.00
2022-12-05T10:05:34.801Z,7000.00
2022-12-05T10:06:34.753Z,7088.00
2022-12-05T10:07:34.782Z,7100.00
2022-12-05T10:08:34.661Z,7048.00
2022-12-05T10:09:34.617Z,6928.00
2022-12-05T10:10:34.581Z,6796.00
2022-12-05T10:11:34.537Z,6708.00
2022-12-05T10:12:35.235Z,6684.00
2022-12-05T10:13:34.441Z,6684.00
2022-12-05T10:14:34.390Z,6680.00
2022-12-05T10:15:34.385Z,6632.00
2022-12-05T10:16:34.369Z,6536.00
2022-12-05T10:17:34.304Z,6512.00
2022-12-05T10:18:34.227Z,6584.00
2022-12-05T10:19:34.180Z,6712.00
2022-12-05T10:20:34.129Z,6800.00
2022-12-05T10:21:34.081Z,6836.00
2022-12-05T10:22:34.040Z,6800.00
2022-12-05T10:23:56.720Z,6684.00
2022-12-05T10:24:33.981Z,6512.00
2022-12-05T10:25:33.909Z,6312.00
2022-12-05T10:26:33.863Z,6108.00
2022-12-05T10:27:39.540Z,5852.00
2022-12-05T10:28:33.785Z,5552.00
2022-12-05T10:29:33.723Z,5212.00
2022-12-05T10:30:33.697Z,4900.00
2022-12-05T10:31:33.685Z,4692.00
2022-12-05T10:32:33.589Z,4568.00
2022-12-05T10:33:33.549Z,4512.00
2022-12-05T10:34:33.503Z,4492.00
2022-12-05T10:35:33.474Z,4476.00
2022-12-05T10:36:33.409Z,4440.00
2022-12-05T10:37:33.375Z,4408.00
2022-12-05T10:38:33.320Z,4380.00
2022-12-05T10:39:33.290Z,4336.00
2022-12-05T10:40:33.239Z,4248.00
2022-12-05T10:41:33.201Z,4104.00
2022-12-05T10:42:33.167Z,3940.00
2022-12-05T10:43:33.100Z,3828.00
2022-12-05T10:44:33.067Z,3760.00
2022-12-05T10:45:33.043Z,3832.00
2022-12-05T10:46:32.984Z,3928.00
2022-12-05T10:47:32.933Z,4044.00
2022-12-05T10:48:32.880Z,4108.00
2022-12-05T10:49:32.837Z,4064.00
2022-12-05T10:50:32.810Z,3956.00
2022-12-05T10:51:37.468Z,3824.00
2022-12-05T10:52:32.696Z,3672.00
2022-12-05T10:53:32.651Z,3476.00
2022-12-05T10:54:32.695Z,3308.00
2022-12-05T10:55:32.590Z,3168.00
2022-12-05T10:56:32.555Z,3044.00
2022-12-05T10:57:32.487Z,2948.00
2022-12-05T10:58:32.431Z,2932.00
2022-12-05T10:59:32.446Z,3028.00
2022-12-05T11:00:32.335Z,3172.00
2022-12-05T11:01:32.354Z,3344.00
2022-12-05T11:02:32.270Z,3428.00
2022-12-05T11:03:32.213Z,3436.00
2022-12-05T11:04:32.164Z,3360.00
2022-12-05T11:05:32.211Z,3252.00
2022-12-05T11:06:32.095Z,3164.00
2022-12-05T11:07:32.112Z,3124.00
2022-12-05T11:09:02.661Z,3108.00
2022-12-05T11:09:31.936Z,3132.00
2022-12-05T11:10:31.885Z,3176.00
2022-12-05T11:11:32.250Z,3256.00
2022-12-05T11:12:31.808Z,3376.00
2022-12-05T11:13:31.759Z,3480.00
2022-12-05T11:14:31.704Z,3488.00
2022-12-05T11:15:31.681Z,3476.00
2022-12-05T11:16:31.782Z,3500.00
2022-12-05T11:17:31.617Z,3568.00
2022-12-05T11:18:31.537Z,3708.00
2022-12-05T11:19:31.493Z,3756.00
2022-12-05T11:20:31.445Z,3720.00
2022-12-05T11:21:31.416Z,3672.00
2022-12-05T11:22:31.393Z,3668.00
2022-12-05T11:23:31.335Z,3696.00
2022-12-05T11:24:31.290Z,3736.00
2022-12-05T11:25:31.214Z,3808.00
2022-12-05T11:26:31.167Z,3928.00
2022-12-05T11:27:31.137Z,4012.00
2022-12-05T11:28:31.095Z,4096.00
2022-12-05T11:29:31.099Z,4220.00
2022-12-05T11:30:30.990Z,4324.00
2022-12-05T11:31:31.160Z,4372.00
2022-12-05T11:32:30.897Z,4392.00
2022-12-05T11:33:30.855Z,4432.00
2022-12-05T11:34:30.810Z,4484.00
2022-12-05T11:35:30.789Z,4524.00
2022-12-05T11:36:30.719Z,4588.00
2022-12-05T11:37:30.676Z,4660.00
2022-12-05T11:38:30.626Z,4760.00
2022-12-05T11:39:30.589Z,4832.00
2022-12-05T11:40:35.170Z,4860.00
2022-12-05T11:41:30.537Z,4944.00
2022-12-05T11:42:30.457Z,5116.00
2022-12-05T11:43:30.407Z,5340.00
2022-12-05T11:44:31.218Z,5584.00
2022-12-05T11:45:30.380Z,5804.00
2022-12-05T11:46:30.333Z,5988.00
2022-12-05T11:47:30.240Z,6032.00
2022-12-05T11:48:30.193Z,6080.00
2022-12-05T11:49:30.136Z,5840.00
2022-12-05T11:50:30.088Z,5804.00
2022-12-05T11:51:30.044Z,5896.00
2022-12-05T11:52:29.999Z,6100.00
2022-12-05T11:53:29.981Z,6232.00
2022-12-05T11:54:56.830Z,6416.00
2022-12-05T11:55:29.873Z,6572.00
2022-12-05T11:56:29.826Z,6772.00
2022-12-05T11:57:29.780Z,6892.00
2022-12-05T11:58:29.740Z,6932.00
2022-12-05T11:59:29.691Z,6860.00
2022-12-05T12:00:29.643Z,6692.00
2022-12-05T12:01:29.606Z,6432.00
2022-12-05T12:02:29.602Z,6160.00
2022-12-05T12:03:33.060Z,5916.00
2022-12-05T12:04:29.473Z,5664.00
2022-12-05T12:05:29.422Z,5508.00
2022-12-05T12:06:29.372Z,5428.00
2022-12-05T12:07:29.420Z,5396.00
2022-12-05T12:08:29.292Z,5324.00
2022-12-05T12:09:29.248Z,5184.00
2022-12-05T12:10:29.196Z,5036.00
2022-12-05T12:11:29.149Z,4868.00
2022-12-05T12:12:29.109Z,4584.00
2022-12-05T12:13:29.060Z,4248.00
2022-12-05T12:14:29.017Z,3988.00
2022-12-05T12:15:28.994Z,3668.00
2022-12-05T12:16:28.954Z,3388.00
2022-12-05T12:17:28.891Z,3180.00
2022-12-05T12:18:28.840Z,3024.00
2022-12-05T12:19:28.794Z,2916.00
2022-12-05T12:20:28.760Z,2832.00
2022-12-05T12:21:31.652Z,2760.00
2022-12-05T12:22:28.661Z,2692.00
2022-12-05T12:23:28.623Z,2644.00
2022-12-05T12:24:28.576Z,2604.00
2022-12-05T12:25:28.538Z,2596.00
2022-12-05T12:26:28.483Z,2600.00
2022-12-05T12:27:28.436Z,2584.00
2022-12-05T12:28:28.393Z,2564.00
2022-12-05T12:29:28.350Z,2552.00
2022-12-05T12:30:28.311Z,2496.00
2022-12-05T12:31:28.371Z,2444.00
2022-12-05T12:32:28.804Z,2372.00
2022-12-05T12:33:30.744Z,2324.00
2022-12-05T12:34:28.125Z,2312.00
2022-12-05T12:35:28.089Z,2252.00
2022-12-05T12:36:28.061Z,2148.00
2022-12-05T12:37:27.995Z,2016.00
2022-12-05T12:38:27.943Z,1912.00
2022-12-05T12:39:27.892Z,1860.00
2022-12-05T12:40:27.860Z,1828.00
2022-12-05T12:41:27.808Z,1792.00
2022-12-05T12:42:27.807Z,1772.00
2022-12-05T12:43:52.540Z,1752.00
2022-12-05T12:44:27.677Z,1744.00
2022-12-05T12:45:27.655Z,1736.00